Waldport, OR

10:01 PM PDT on September 17, 2014 (GMT -0700)
1310 SW Corona Ct | Change Station
CLOSE
Current Station
Personal Weather Station
Location: Waldport, OR
Elevation: 56 ft
Nearby Weather Stations

Elev 56 ft 44.42 °N, 124.08 °W | Updated 1 second ago

Overcast
Overcast
57.2 °F
Feels Like 57.2 °F
N
0.0
Wind Variable Wind from SE
Gusts 0.0 mph

Today
High -- | Low -- °F
--% Chance of Precip.
Yesterday
High -- | Low -- °F
Precip. -- in
6:57 AM 7:22 PM
Waning Crescent, 30% visible
Pressure 29.80 in
Visibility 7.0 miles
Clouds Overcast 9500 ft
Dew Point 34 °F
Humidity 41%
Rainfall 0.02 in
Snow Depth 0 in , 0 in , 0 in
UV 0 out of 12
Pollen 1.30 out of 12
Air Quality Not available.
Flu Activity Not available.
METAR KONP 180455Z AUTO 00000KT 7SM OVC095 14/13 A2980 RMK AO2

More Conditions Fewer Conditions

Pressure 29.80 in
Visibility 7.0 miles
Clouds Overcast 9500 ft
Dew Point 34 °F
Humidity 41%
Rainfall 0.02 in
Snow Depth 0 in , 0 in , 0 in
UV 0 out of 12
Pollen 1.30 out of 12
Air Quality Not available.
Flu Activity Not available.
METAR KONP 180455Z AUTO 00000KT 7SM OVC095 14/13 A2980 RMK AO2

More Conditions Fewer Conditions

10-Day Weather Forecast

Almanac

Astronomy

Sep. 17, 2014 Rise Set
Actual Time 6:57 AM PDT 7:22 PM PDT
Civil Twilight 6:28 AM PDT 7:51 PM PDT
Nautical Twilight 5:54 AM PDT 8:26 PM PDT
Astronomical Twilight 5:18 AM PDT 9:01 PM PDT
Moon 12:52 AM PDT (9/17) 3:46 PM PDT (9/17)
Length of Visible Light 13h 23m
Length of Day
12h 25m
Tomorrow will be 3m 3s shorter.
Waning Crescent, 30% of the Moon is Illuminated
Sep 18
Waning Crescent
Sep 24
New
Oct 1
First Quarter
Oct 8
Full
Oct 15
Last Quarter

Yesterday's Extremes

State Highs State Lows

Community

WunderPhotos

Upload Photos

1,754,288 photos uploaded!

Nearby

Snow Depth

Station Depth Elevation
Blazed Alder 0 in 3650 ft
Fish Lake 0 in 4665 ft
Holland Meadows 0 in 4900 ft
Three Creeks Meadow 0 in 5650 ft
Sevenmile Marsh 0 in 6200 ft

Earthquake Activity

City Distance Mag. Time & Date
Morton, Washington 154 miles 3.0 5:43 AM PDT
2014-09-16
Minimum magnitude displayed is 2.5.

Coastal Water Temperatures

Place Temperature
South Beach, OR 55.0 °F
Charleston, OR 53.1 °F

Nearby Weather Stations